Time;durP1;ratioP1;P1;durP2;ratioP2;P2;SDS_P1;SDS_P2;PMS_P1;PMS_P2;Temp;Humidity;BMP_temperature;BMP_pressure;BME280_temperature;BME280_humidity;BME280_pressure;Samples;Min_cycle;Max_cycle;Signal;HPM_P1;HPM_P2
2022/10/10 00:01:24;;;;;;;7.45;1.92;;;11.00;99.90;;;;;;4942508;29;20058;-95
2022/10/10 00:03:50;;;;;;;7.57;2.15;;;11.00;99.90;;;;;;4942779;28;20024;-96
2022/10/10 00:06:16;;;;;;;9.27;2.13;;;10.90;99.90;;;;;;4943128;29;20023;-94
2022/10/10 00:08:43;;;;;;;12.63;2.40;;;10.90;99.90;;;;;;4945185;29;20437;-95
2022/10/10 00:11:10;;;;;;;11.05;2.58;;;10.90;99.90;;;;;;4939577;29;20400;-93
2022/10/10 00:13:35;;;;;;;2.78;1.70;;;10.90;99.90;;;;;;4939609;29;20046;-93
2022/10/10 00:16:02;;;;;;;6.78;2.10;;;10.90;99.90;;;;;;4938560;29;20027;-92
2022/10/10 00:18:28;;;;;;;4.38;2.03;;;10.90;99.90;;;;;;4939866;29;20212;-95
2022/10/10 00:20:54;;;;;;;6.28;2.03;;;10.90;99.90;;;;;;4940484;29;20031;-94
2022/10/10 00:23:20;;;;;;;5.85;1.70;;;10.90;99.90;;;;;;4941467;29;20039;-94
2022/10/10 00:25:47;;;;;;;8.27;1.73;;;10.90;99.90;;;;;;4940305;29;20027;-93
2022/10/10 00:28:12;;;;;;;4.97;1.80;;;10.90;99.90;;;;;;4939168;29;20038;-94
2022/10/10 00:30:39;;;;;;;4.03;1.90;;;10.90;99.90;;;;;;4941404;29;20027;-94
2022/10/10 00:33:05;;;;;;;5.13;1.75;;;10.90;99.90;;;;;;4939305;29;20456;-94
2022/10/10 00:35:30;;;;;;;5.88;1.90;;;10.90;99.90;;;;;;4945202;29;20031;-96
2022/10/10 00:37:56;;;;;;;3.58;2.05;;;10.90;99.90;;;;;;4942097;29;20035;-96
2022/10/10 00:40:22;;;;;;;12.65;3.08;;;10.90;99.90;;;;;;4940939;29;20153;-95
2022/10/10 00:42:48;;;;;;;8.73;2.33;;;10.90;99.90;;;;;;4942213;29;20031;-95
2022/10/10 00:45:28;;;;;;;8.82;2.10;;;10.90;99.90;;;;;;4941692;29;20125;-96
2022/10/10 00:48:08;;;;;;;5.75;1.98;;;10.90;99.90;;;;;;4944144;29;20043;-96
2022/10/10 00:50:40;;;;;;;7.05;2.22;;;10.90;99.90;;;;;;4959230;29;20268;-95
2022/10/10 00:53:09;;;;;;;8.23;2.30;;;10.90;99.90;;;;;;4939681;29;20122;-93
2022/10/10 00:55:35;;;;;;;6.70;1.98;;;11.00;99.90;;;;;;4944085;29;20028;-95
2022/10/10 00:58:02;;;;;;;6.20;2.00;;;10.90;99.90;;;;;;4956223;28;20027;-94
2022/10/10 01:00:27;;;;;;;5.32;2.55;;;10.90;99.90;;;;;;4959726;28;20038;-95
2022/10/10 01:02:53;;;;;;;9.60;2.03;;;10.90;99.90;;;;;;4963450;28;20030;-95
2022/10/10 01:05:19;;;;;;;5.80;2.40;;;10.90;99.90;;;;;;4957852;28;20057;-94
2022/10/10 01:07:45;;;;;;;3.38;2.08;;;10.90;99.90;;;;;;4960466;28;20045;-96
2022/10/10 01:10:14;;;;;;;10.40;2.20;;;11.00;99.90;;;;;;4965611;28;20041;-93
2022/10/10 01:12:42;;;;;;;6.82;2.20;;;11.00;99.90;;;;;;4971851;28;20095;-94
2022/10/10 01:15:20;;;;;;;4.07;2.13;;;11.00;99.90;;;;;;4977263;28;20023;-90
2022/10/10 01:18:06;;;;;;;4.13;2.20;;;11.10;99.90;;;;;;4972879;28;20015;-93
2022/10/10 01:20:58;;;;;;;10.90;2.60;;;11.10;99.90;;;;;;4973636;28;20199;-95
2022/10/10 01:23:36;;;;;;;1.58;1.30;;;11.00;99.90;;;;;;4968885;28;20082;-95
2022/10/10 01:26:26;;;;;;;2.35;1.10;;;11.00;99.90;;;;;;4963304;28;20034;-94
2022/10/10 01:29:10;;;;;;;1.95;1.05;;;11.00;99.90;;;;;;4961196;28;20038;-96
2022/10/10 01:31:42;;;;;;;2.85;0.73;;;10.90;99.90;;;;;;4966373;28;20069;-94
2022/10/10 01:34:36;;;;;;;3.50;0.90;;;10.90;99.90;;;;;;4971939;28;20015;-94
2022/10/10 01:37:18;;;;;;;3.70;0.70;;;10.80;99.90;;;;;;4972141;28;20121;-95
2022/10/10 01:40:03;;;;;;;3.42;0.90;;;10.70;99.90;;;;;;4961868;28;20093;-93
2022/10/10 01:42:50;;;;;;;4.35;0.70;;;10.60;99.90;;;;;;4964084;28;20027;-95
2022/10/10 01:45:16;;;;;;;7.55;1.05;;;10.50;99.90;;;;;;4963134;28;20103;-92
2022/10/10 01:47:42;;;;;;;7.25;2.53;;;10.40;99.90;;;;;;4965124;28;20026;-93
2022/10/10 01:50:14;;;;;;;8.13;1.05;;;10.30;99.90;;;;;;4966697;28;20034;-94
2022/10/10 01:53:08;;;;;;;7.03;1.10;;;10.20;99.90;;;;;;4966333;28;20065;-93
2022/10/10 01:55:56;;;;;;;9.52;1.20;;;10.10;99.90;;;;;;4965260;28;20026;-95
2022/10/10 01:58:40;;;;;;;7.70;1.15;;;10.00;99.90;;;;;;4962949;28;20035;-95
2022/10/10 02:01:27;;;;;;;11.38;1.52;;;9.90;99.90;;;;;;4957912;28;20053;-94
2022/10/10 02:04:21;;;;;;;16.73;1.80;;;9.80;99.90;;;;;;4958449;29;20031;-93
2022/10/10 02:06:56;;;;;;;14.35;1.40;;;9.80;99.90;;;;;;4968583;29;20031;-94
2022/10/10 02:09:28;;;;;;;9.10;1.10;;;9.70;99.90;;;;;;4960006;29;20118;-94
2022/10/10 02:11:56;;;;;;;8.18;1.40;;;9.60;99.90;;;;;;4962223;29;20053;-94
2022/10/10 02:14:27;;;;;;;8.48;1.40;;;9.60;99.90;;;;;;4971278;29;20031;-94
2022/10/10 02:16:56;;;;;;;8.68;1.17;;;9.50;99.90;;;;;;4960753;29;20031;-95
2022/10/10 02:19:24;;;;;;;15.15;1.65;;;9.50;99.90;;;;;;4963544;29;20089;-95
2022/10/10 02:21:52;;;;;;;6.10;1.10;;;9.40;99.90;;;;;;4967634;28;20022;-95
2022/10/10 02:24:22;;;;;;;6.05;1.80;;;9.40;99.90;;;;;;4971196;28;20508;-94
2022/10/10 02:27:02;;;;;;;6.82;1.48;;;9.40;99.90;;;;;;4971988;28;20033;-95
2022/10/10 02:29:33;;;;;;;10.40;1.60;;;9.30;99.90;;;;;;4969512;28;20041;-96
2022/10/10 02:32:13;;;;;;;10.85;1.35;;;9.30;99.90;;;;;;4964426;29;20116;-95
2022/10/10 02:34:44;;;;;;;12.73;1.27;;;9.30;99.90;;;;;;4972089;29;20485;-93
2022/10/10 02:37:12;;;;;;;10.80;1.05;;;9.30;99.90;;;;;;4973088;29;20199;-91
2022/10/10 02:39:43;;;;;;;6.07;1.08;;;9.20;99.90;;;;;;4978884;28;20079;-94
2022/10/10 02:42:11;;;;;;;21.77;2.08;;;9.30;99.90;;;;;;4969869;28;20082;-95
2022/10/10 02:44:39;;;;;;;11.95;1.20;;;9.30;99.90;;;;;;4978326;28;20079;-92
2022/10/10 02:47:04;;;;;;;9.70;2.03;;;9.30;99.90;;;;;;4976058;28;20035;-95
2022/10/10 02:49:33;;;;;;;9.13;2.28;;;9.30;99.90;;;;;;4979010;28;20023;-93
2022/10/10 02:51:59;;;;;;;17.45;1.88;;;9.30;99.90;;;;;;4979165;28;20040;-93
2022/10/10 02:54:25;;;;;;;10.82;1.50;;;9.30;99.90;;;;;;4975935;29;20039;-94
2022/10/10 02:56:51;;;;;;;13.05;1.60;;;9.20;99.90;;;;;;4976430;28;20020;-95
2022/10/10 02:59:18;;;;;;;11.32;1.50;;;9.20;99.90;;;;;;4976758;29;20035;-93
2022/10/10 03:01:44;;;;;;;9.02;1.50;;;9.20;99.90;;;;;;4973317;28;20067;-95
2022/10/10 03:04:10;;;;;;;9.00;1.98;;;9.20;99.90;;;;;;4974576;29;20062;-95
2022/10/10 03:06:36;;;;;;;10.77;1.50;;;9.20;99.90;;;;;;4973743;29;20031;-95
2022/10/10 03:09:03;;;;;;;9.45;2.17;;;9.10;99.90;;;;;;4974278;29;20062;-94
2022/10/10 03:11:29;;;;;;;11.75;2.75;;;9.10;99.90;;;;;;4973245;29;20023;-94
2022/10/10 03:13:55;;;;;;;8.98;1.63;;;9.10;99.90;;;;;;4977392;28;20039;-94
2022/10/10 03:16:20;;;;;;;16.85;2.40;;;9.00;99.90;;;;;;4978673;28;20435;-92
2022/10/10 03:18:46;;;;;;;13.70;1.85;;;9.00;99.90;;;;;;4977641;28;20031;-93
2022/10/10 03:21:12;;;;;;;10.52;1.95;;;9.00;99.90;;;;;;4977963;28;20022;-90
2022/10/10 03:23:39;;;;;;;15.75;1.60;;;9.00;99.90;;;;;;4978897;28;20103;-94
2022/10/10 03:26:06;;;;;;;13.10;1.38;;;8.90;99.90;;;;;;4973811;29;20128;-92
2022/10/10 03:28:32;;;;;;;14.48;1.90;;;8.90;99.90;;;;;;4977247;28;20022;-94
2022/10/10 03:30:57;;;;;;;13.93;2.67;;;8.90;99.90;;;;;;4977523;29;20023;-94
2022/10/10 03:33:23;;;;;;;11.15;1.52;;;8.90;99.90;;;;;;4978116;29;20023;-90
2022/10/10 03:35:49;;;;;;;13.68;1.60;;;8.90;99.90;;;;;;4977861;28;20043;-91
2022/10/10 03:38:14;;;;;;;12.23;1.85;;;8.90;99.90;;;;;;4977159;28;20031;-93
2022/10/10 03:40:42;;;;;;;19.33;2.95;;;8.80;99.90;;;;;;4977311;29;20036;-95
2022/10/10 03:43:09;;;;;;;13.52;1.98;;;8.80;99.90;;;;;;4978884;28;20019;-92
2022/10/10 03:45:35;;;;;;;7.18;1.55;;;8.80;99.90;;;;;;4977550;29;20035;-94
2022/10/10 03:48:00;;;;;;;18.25;1.98;;;8.70;99.90;;;;;;4976222;28;20031;-94
2022/10/10 03:50:27;;;;;;;18.58;2.08;;;8.70;99.90;;;;;;4976679;29;20031;-93
2022/10/10 03:52:52;;;;;;;12.50;1.80;;;8.70;99.90;;;;;;4977647;28;20051;-92
2022/10/10 03:55:18;;;;;;;14.25;2.42;;;8.60;99.90;;;;;;4960422;29;20106;-95
2022/10/10 03:57:44;;;;;;;10.77;1.88;;;8.60;99.90;;;;;;4975589;28;20063;-93
2022/10/10 04:00:10;;;;;;;12.30;2.17;;;8.60;99.90;;;;;;4978255;28;20053;-92
2022/10/10 04:02:36;;;;;;;19.10;2.28;;;8.60;99.90;;;;;;4980509;28;20029;-94
2022/10/10 04:05:03;;;;;;;14.20;1.80;;;8.60;99.90;;;;;;4963170;28;20038;-93
2022/10/10 04:07:32;;;;;;;15.23;2.00;;;8.60;99.90;;;;;;4996799;28;20031;-92
2022/10/10 04:09:58;;;;;;;10.77;1.67;;;8.50;99.90;;;;;;4979697;28;20011;-92
2022/10/10 04:12:23;;;;;;;15.77;2.80;;;8.50;99.90;;;;;;4976103;28;20125;-93
2022/10/10 04:14:49;;;;;;;20.25;3.08;;;8.50;99.90;;;;;;4978566;28;20026;-94
2022/10/10 04:17:16;;;;;;;16.27;2.20;;;8.50;99.90;;;;;;4979956;28;20035;-94
2022/10/10 04:19:42;;;;;;;13.57;2.20;;;8.50;99.90;;;;;;4979308;28;20023;-93
2022/10/10 04:22:08;;;;;;;13.23;2.20;;;8.50;99.90;;;;;;4980028;28;20027;-91
2022/10/10 04:24:33;;;;;;;17.25;2.40;;;8.50;99.90;;;;;;4981138;28;20074;-92
2022/10/10 04:27:00;;;;;;;20.85;3.65;;;8.50;99.90;;;;;;4981175;28;20019;-91
2022/10/10 04:29:26;;;;;;;19.40;2.78;;;8.50;99.90;;;;;;4966007;28;20115;-93
2022/10/10 04:31:52;;;;;;;18.08;2.38;;;8.50;99.90;;;;;;4998075;28;20023;-95
2022/10/10 04:34:17;;;;;;;13.25;2.05;;;8.40;99.90;;;;;;4981140;28;20015;-92
2022/10/10 04:36:43;;;;;;;16.70;2.17;;;8.40;99.90;;;;;;4979200;28;20031;-96
2022/10/10 04:39:08;;;;;;;15.23;2.60;;;8.40;99.90;;;;;;4978282;28;20046;-94
2022/10/10 04:41:34;;;;;;;19.17;3.15;;;8.40;99.90;;;;;;4980954;28;20041;-93
2022/10/10 04:44:00;;;;;;;13.57;2.30;;;8.40;99.90;;;;;;4979484;28;20046;-94
2022/10/10 04:46:26;;;;;;;14.75;2.38;;;8.40;99.90;;;;;;4978324;28;20098;-94
2022/10/10 04:48:53;;;;;;;10.00;2.00;;;8.40;99.90;;;;;;4962551;28;20039;-92
2022/10/10 04:51:19;;;;;;;14.20;2.65;;;8.40;99.90;;;;;;4995218;28;20034;-95
2022/10/10 04:53:45;;;;;;;25.33;2.90;;;8.40;99.90;;;;;;4978155;28;20027;-96
2022/10/10 04:56:10;;;;;;;16.23;2.60;;;8.40;99.90;;;;;;4980634;28;20022;-91
2022/10/10 04:58:36;;;;;;;16.65;3.20;;;8.30;99.90;;;;;;4978343;28;20019;-94
2022/10/10 05:01:03;;;;;;;15.02;2.75;;;8.30;99.90;;;;;;4976957;28;20051;-96
2022/10/10 05:03:31;;;;;;;17.27;2.10;;;8.30;99.90;;;;;;4979029;28;20065;-95
2022/10/10 05:05:56;;;;;;;16.98;2.20;;;8.30;99.90;;;;;;4978436;28;20043;-94
2022/10/10 05:08:25;;;;;;;16.80;2.20;;;8.20;99.90;;;;;;4977588;28;20042;-91
2022/10/10 05:10:52;;;;;;;16.60;2.00;;;8.20;99.90;;;;;;4978520;28;20027;-93
2022/10/10 05:13:18;;;;;;;15.50;2.45;;;8.20;99.90;;;;;;4979478;28;20086;-92
2022/10/10 05:15:44;;;;;;;18.20;2.10;;;8.20;99.90;;;;;;4981402;28;20043;-92
2022/10/10 05:18:09;;;;;;;18.15;1.95;;;8.10;99.90;;;;;;4980368;28;20030;-90
2022/10/10 05:20:36;;;;;;;13.05;1.95;;;8.10;99.90;;;;;;4993913;28;20050;-93
2022/10/10 05:23:02;;;;;;;12.88;1.90;;;8.10;99.90;;;;;;4977053;28;20077;-91
2022/10/10 05:25:28;;;;;;;19.35;2.05;;;8.00;99.90;;;;;;4974570;28;20066;-94
2022/10/10 05:27:53;;;;;;;12.50;2.40;;;8.00;99.90;;;;;;4951125;29;20035;-92
2022/10/10 05:30:19;;;;;;;14.88;2.97;;;8.00;99.90;;;;;;4947987;29;20035;-93
2022/10/10 05:32:45;;;;;;;15.27;3.00;;;8.00;99.90;;;;;;4952638;29;20023;-94
2022/10/10 05:35:11;;;;;;;17.30;2.10;;;8.00;99.90;;;;;;4951064;29;20031;-93
2022/10/10 05:37:38;;;;;;;18.67;2.33;;;8.00;99.90;;;;;;4956505;29;20038;-92
2022/10/10 05:40:04;;;;;;;15.90;2.20;;;8.10;99.90;;;;;;4960938;28;20065;-91
2022/10/10 05:42:30;;;;;;;9.88;2.20;;;8.00;99.90;;;;;;4959185;28;20122;-94
2022/10/10 05:44:55;;;;;;;14.73;2.00;;;8.00;99.90;;;;;;4947743;29;20078;-94
2022/10/10 05:47:21;;;;;;;9.25;2.10;;;8.00;99.90;;;;;;4943489;29;20054;-95
2022/10/10 05:49:47;;;;;;;13.57;1.65;;;8.00;99.90;;;;;;4942086;29;20063;-93
2022/10/10 05:52:12;;;;;;;16.60;1.95;;;8.00;99.90;;;;;;4944790;29;20035;-95
2022/10/10 05:54:38;;;;;;;15.73;1.90;;;8.00;99.90;;;;;;4945238;29;20047;-95
2022/10/10 05:57:04;;;;;;;15.52;1.92;;;8.00;99.90;;;;;;4942704;29;20035;-94
2022/10/10 05:59:30;;;;;;;13.35;1.92;;;7.90;99.90;;;;;;4941908;29;20050;-95
2022/10/10 06:01:56;;;;;;;16.92;2.65;;;7.90;99.90;;;;;;4950532;29;20031;-93
2022/10/10 06:04:22;;;;;;;17.73;3.05;;;8.00;99.90;;;;;;4951505;29;20120;-95
2022/10/10 06:06:54;;;;;;;18.52;2.20;;;7.90;99.90;;;;;;4949268;29;20031;-95
2022/10/10 06:09:20;;;;;;;20.63;2.22;;;7.90;99.90;;;;;;4952359;29;20036;-95
2022/10/10 06:11:45;;;;;;;16.88;2.05;;;7.90;99.90;;;;;;4948918;29;20027;-94
2022/10/10 06:14:11;;;;;;;14.60;2.38;;;7.90;99.90;;;;;;4966466;29;20058;-94
2022/10/10 06:16:38;;;;;;;18.33;2.33;;;7.90;99.90;;;;;;4949998;29;20086;-94
2022/10/10 06:19:04;;;;;;;15.82;1.98;;;7.90;99.90;;;;;;4945550;29;20037;-94
2022/10/10 06:21:30;;;;;;;18.40;2.75;;;7.90;99.90;;;;;;4939636;29;20050;-94
2022/10/10 06:24:14;;;;;;;19.20;2.10;;;7.90;99.90;;;;;;4939441;29;20051;-94
2022/10/10 06:26:39;;;;;;;20.08;2.58;;;7.90;99.90;;;;;;4932354;29;20044;-93
2022/10/10 06:29:06;;;;;;;23.50;3.08;;;7.90;99.90;;;;;;4941312;29;20042;-93
2022/10/10 06:31:38;;;;;;;17.27;2.92;;;7.90;99.90;;;;;;4948950;28;20028;-93
2022/10/10 06:34:05;;;;;;;21.25;2.30;;;7.90;99.90;;;;;;4946130;29;20035;-94
2022/10/10 06:36:31;;;;;;;21.15;3.05;;;7.90;99.90;;;;;;4946295;29;20030;-92
2022/10/10 06:38:56;;;;;;;14.63;2.15;;;7.90;99.90;;;;;;4936605;29;20107;-94
2022/10/10 06:41:22;;;;;;;15.15;2.10;;;7.90;99.90;;;;;;4950815;29;20030;-93
2022/10/10 06:43:49;;;;;;;21.52;2.65;;;7.90;99.90;;;;;;4946080;29;20130;-94
2022/10/10 06:46:15;;;;;;;14.73;1.98;;;8.00;99.90;;;;;;4930208;29;20094;-93
2022/10/10 06:48:40;;;;;;;15.40;2.20;;;8.00;99.90;;;;;;4941207;29;20015;-94
2022/10/10 06:51:08;;;;;;;18.23;2.88;;;8.00;99.90;;;;;;4943204;29;20058;-94
2022/10/10 06:53:34;;;;;;;17.17;4.20;;;8.10;99.90;;;;;;4930324;29;20035;-93
2022/10/10 06:56:00;;;;;;;15.02;3.05;;;8.10;99.90;;;;;;4923826;29;20464;-96
2022/10/10 06:58:27;;;;;;;16.63;2.30;;;8.10;99.90;;;;;;4936156;29;20110;-93
2022/10/10 07:00:55;;;;;;;24.42;3.58;;;8.20;99.90;;;;;;4935023;28;20082;-93
2022/10/10 07:03:22;;;;;;;19.95;2.03;;;8.20;99.90;;;;;;4942865;29;20038;-93
2022/10/10 07:05:52;;;;;;;13.32;2.42;;;8.20;99.90;;;;;;4940963;29;20466;-94
2022/10/10 07:08:21;;;;;;;17.33;1.92;;;8.20;99.90;;;;;;4960641;29;20027;-92
2022/10/10 07:10:47;;;;;;;21.88;2.05;;;8.30;99.90;;;;;;4946827;29;20031;-95
2022/10/10 07:13:14;;;;;;;17.45;2.85;;;8.30;99.90;;;;;;4945723;29;20553;-95
2022/10/10 07:15:40;;;;;;;17.90;2.25;;;8.30;99.90;;;;;;4948926;29;20019;-94
2022/10/10 07:18:06;;;;;;;15.52;2.15;;;8.40;99.90;;;;;;4960454;29;20389;-95
2022/10/10 07:20:33;;;;;;;11.80;2.17;;;8.40;99.90;;;;;;4942592;29;20030;-94
2022/10/10 07:22:59;;;;;;;19.15;2.50;;;8.50;99.90;;;;;;4960785;29;20086;-94
2022/10/10 07:25:25;;;;;;;15.45;2.13;;;8.50;99.90;;;;;;4966275;29;20050;-95
2022/10/10 07:27:51;;;;;;;16.00;2.20;;;8.60;99.90;;;;;;4942108;29;20024;-94
2022/10/10 07:30:17;;;;;;;20.98;2.75;;;8.70;99.90;;;;;;4944295;29;20070;-94
2022/10/10 07:32:43;;;;;;;15.25;2.28;;;8.80;99.90;;;;;;4941828;29;20032;-93
2022/10/10 07:35:10;;;;;;;12.98;1.75;;;8.90;99.90;;;;;;4941991;29;20045;-92
2022/10/10 07:37:35;;;;;;;16.77;2.55;;;8.90;99.90;;;;;;4938128;29;20034;-93
2022/10/10 07:40:01;;;;;;;14.73;1.85;;;9.00;99.90;;;;;;4939666;29;20023;-93
2022/10/10 07:42:27;;;;;;;16.00;2.15;;;9.00;99.90;;;;;;4940016;29;20066;-95
2022/10/10 07:44:52;;;;;;;14.95;2.13;;;9.00;99.90;;;;;;4939150;28;20035;-95
2022/10/10 07:47:21;;;;;;;13.77;2.90;;;9.10;99.90;;;;;;4940837;29;20023;-93
2022/10/10 07:49:46;;;;;;;16.17;2.38;;;9.10;99.90;;;;;;4940931;29;20106;-93
2022/10/10 07:52:12;;;;;;;16.63;2.10;;;9.20;99.90;;;;;;4941516;29;20137;-95
2022/10/10 07:54:38;;;;;;;18.25;2.28;;;9.20;99.90;;;;;;4941774;29;20037;-93
2022/10/10 07:57:04;;;;;;;13.13;2.28;;;9.20;99.90;;;;;;4952922;28;20091;-92
2022/10/10 07:59:29;;;;;;;16.52;2.85;;;9.30;99.90;;;;;;4945386;29;20027;-91
2022/10/10 08:01:55;;;;;;;24.30;2.75;;;9.40;99.90;;;;;;4934262;29;20043;-92
2022/10/10 08:04:21;;;;;;;18.73;2.40;;;9.40;99.90;;;;;;4938651;29;20028;-93
2022/10/10 08:06:47;;;;;;;25.90;2.53;;;9.50;99.90;;;;;;4936394;29;20054;-93
2022/10/10 08:09:14;;;;;;;22.92;2.75;;;9.50;99.90;;;;;;4939238;29;20059;-93
2022/10/10 08:11:42;;;;;;;17.83;2.50;;;9.60;99.90;;;;;;4936725;29;20032;-92
2022/10/10 08:14:08;;;;;;;21.85;2.55;;;9.60;99.90;;;;;;4939687;29;20499;-93
2022/10/10 08:16:34;;;;;;;16.27;2.95;;;9.70;99.90;;;;;;4939446;29;20118;-93
2022/10/10 08:19:00;;;;;;;17.58;2.10;;;9.80;99.90;;;;;;4939379;29;20023;-91
2022/10/10 08:21:25;;;;;;;17.40;2.70;;;9.90;99.90;;;;;;4938741;29;20023;-92
2022/10/10 08:23:51;;;;;;;17.10;2.10;;;10.00;99.90;;;;;;4938650;29;20036;-91
2022/10/10 08:26:18;;;;;;;13.75;2.17;;;10.10;99.90;;;;;;4939011;29;20148;-92
2022/10/10 08:28:46;;;;;;;16.42;2.10;;;10.10;99.90;;;;;;4932954;29;20035;-94
2022/10/10 08:31:13;;;;;;;22.13;2.22;;;10.20;99.90;;;;;;4938463;29;20028;-93
2022/10/10 08:33:41;;;;;;;16.98;2.17;;;10.30;99.90;;;;;;4937923;29;20497;-92
2022/10/10 08:36:09;;;;;;;17.90;2.40;;;10.40;99.90;;;;;;4937803;29;20023;-91
2022/10/10 08:38:36;;;;;;;16.65;2.95;;;10.50;99.90;;;;;;4937153;29;20031;-93
2022/10/10 08:41:31;;;;;;;14.70;3.13;;;10.60;99.90;;;;;;4938039;29;20031;-93
2022/10/10 08:44:02;;;;;;;20.42;2.78;;;10.60;99.90;;;;;;4934680;29;20031;-91
2022/10/10 08:46:36;;;;;;;16.05;2.15;;;10.70;99.90;;;;;;4938493;29;20043;-93
2022/10/10 08:49:18;;;;;;;18.95;3.13;;;10.80;99.90;;;;;;4933198;29;20101;-93
2022/10/10 08:51:51;;;;;;;23.85;3.15;;;10.90;99.90;;;;;;4932797;29;20197;-91
2022/10/10 08:54:18;;;;;;;19.38;2.95;;;11.00;99.90;;;;;;4937894;29;20026;-92
2022/10/10 08:56:45;;;;;;;14.38;2.10;;;11.00;99.90;;;;;;4938041;29;20042;-93
2022/10/10 08:59:34;;;;;;;16.98;2.40;;;11.10;99.90;;;;;;4938809;29;20175;-93
2022/10/10 09:02:28;;;;;;;18.15;3.47;;;11.10;99.90;;;;;;4936622;29;20074;-92
2022/10/10 09:04:56;;;;;;;15.73;3.05;;;11.20;99.90;;;;;;4916309;29;20054;-92
2022/10/10 09:08:13;;;;;;;17.92;2.50;;;11.20;99.90;;;;;;4942501;29;20026;-92
2022/10/10 09:10:55;;;;;;;14.88;3.63;;;11.30;99.90;;;;;;4838211;29;20034;-93
2022/10/10 09:13:57;;;;;;;13.35;1.80;;;11.40;99.90;;;;;;4839407;29;20037;-93
2022/10/10 09:16:33;;;;;;;15.90;2.08;;;11.50;99.90;;;;;;4824877;29;20075;-91
2022/10/10 09:19:07;;;;;;;20.65;3.05;;;11.70;99.90;;;;;;4838436;29;20046;-93
2022/10/10 09:21:36;;;;;;;14.73;2.30;;;11.70;99.90;;;;;;4839901;29;20109;-92
2022/10/10 09:24:24;;;;;;;15.43;2.17;;;11.90;99.90;;;;;;4824725;29;20041;-91
2022/10/10 09:27:01;;;;;;;19.20;2.72;;;12.10;99.90;;;;;;4839729;29;20034;-94
2022/10/10 09:29:46;;;;;;;19.55;2.50;;;12.20;99.90;;;;;;4825346;29;20116;-93
2022/10/10 09:32:32;;;;;;;14.07;2.40;;;12.40;99.90;;;;;;4824940;29;20061;-92
2022/10/10 09:35:11;;;;;;;18.13;2.53;;;12.50;99.90;;;;;;4837104;29;20030;-91
2022/10/10 09:37:38;;;;;;;13.93;2.35;;;12.70;99.90;;;;;;4820400;29;20025;-92
2022/10/10 09:40:33;;;;;;;17.52;2.05;;;12.80;99.90;;;;;;4825419;29;20041;-92
2022/10/10 09:43:09;;;;;;;13.77;2.15;;;13.00;99.90;;;;;;4818455;29;20050;-94
2022/10/10 09:45:42;;;;;;;13.27;2.60;;;13.10;99.90;;;;;;4845155;29;20131;-95
2022/10/10 09:48:09;;;;;;;13.27;2.20;;;13.10;99.90;;;;;;4938052;29;20023;-94
2022/10/10 09:50:36;;;;;;;20.65;2.03;;;13.20;99.90;;;;;;4937817;29;20043;-94
2022/10/10 09:53:02;;;;;;;20.40;2.80;;;13.20;99.90;;;;;;4937866;29;20019;-95
2022/10/10 09:55:37;;;;;;;19.08;2.28;;;13.40;99.90;;;;;;4941582;29;20042;-94
2022/10/10 09:58:13;;;;;;;16.73;2.50;;;13.60;99.90;;;;;;4938893;29;20051;-94
2022/10/10 10:00:38;;;;;;;15.75;3.00;;;13.60;99.90;;;;;;4939575;29;20051;-94
2022/10/10 10:03:18;;;;;;;12.13;2.25;;;13.70;99.90;;;;;;4942902;29;20089;-96
2022/10/10 10:06:00;;;;;;;10.10;2.03;;;13.80;99.90;;;;;;4944656;29;20481;-95
2022/10/10 10:08:37;;;;;;;19.83;2.25;;;13.90;99.90;;;;;;4958658;29;20054;-94
2022/10/10 10:11:04;;;;;;;20.02;2.58;;;13.90;99.90;;;;;;4959911;29;20038;-96
2022/10/10 10:13:35;;;;;;;13.02;1.90;;;13.80;99.90;;;;;;4961071;29;20027;-94
2022/10/10 10:16:12;;;;;;;18.58;2.15;;;13.80;99.90;;;;;;4961428;29;20114;-95
2022/10/10 10:18:47;;;;;;;11.43;1.85;;;13.90;99.90;;;;;;4942886;29;20023;-95
2022/10/10 10:21:15;;;;;;;14.55;2.33;;;14.10;99.90;;;;;;4950561;29;20022;-93
2022/10/10 10:23:54;;;;;;;11.38;1.70;;;14.30;99.90;;;;;;4965932;28;20016;-91
2022/10/10 10:26:42;;;;;;;11.70;1.65;;;14.50;99.90;;;;;;4978290;28;20016;-91
2022/10/10 10:29:26;;;;;;;14.75;1.80;;;14.70;99.90;;;;;;4970641;28;20046;-94
2022/10/10 10:32:04;;;;;;;9.88;2.47;;;14.80;99.90;;;;;;4976224;28;20018;-92
2022/10/10 10:34:41;;;;;;;15.27;1.90;;;15.00;99.90;;;;;;4961837;29;20031;-96
2022/10/10 10:37:19;;;;;;;8.20;1.60;;;15.30;99.90;;;;;;4951519;29;20031;-96
2022/10/10 10:39:45;;;;;;;8.52;1.70;;;15.40;99.90;;;;;;4948858;29;20030;-95
2022/10/10 10:42:16;;;;;;;15.40;1.92;;;15.50;99.60;;;;;;4947185;29;20027;-96
2022/10/10 10:45:09;;;;;;;10.80;1.67;;;15.50;98.80;;;;;;4945905;29;20039;-96
2022/10/10 10:47:37;;;;;;;12.07;1.73;;;15.70;98.60;;;;;;4953139;29;20243;-96
2022/10/10 10:50:09;;;;;;;13.05;2.15;;;15.70;97.50;;;;;;4952830;29;20035;-96
2022/10/10 10:52:46;;;;;;;12.50;1.88;;;15.50;96.70;;;;;;4948426;29;20027;-94
2022/10/10 10:55:44;;;;;;;12.57;1.48;;;15.40;96.30;;;;;;4954782;29;20039;-95
2022/10/10 10:58:38;;;;;;;18.33;1.70;;;15.30;95.80;;;;;;4959434;29;20016;-93
2022/10/10 11:01:08;;;;;;;6.72;1.23;;;15.10;95.40;;;;;;4960357;28;20063;-92
2022/10/10 11:03:42;;;;;;;12.35;1.35;;;14.90;94.80;;;;;;4953728;28;20071;-91
2022/10/10 11:06:35;;;;;;;4.57;1.13;;;14.70;94.90;;;;;;4957316;29;20035;-95
2022/10/10 11:09:41;;;;;;;13.15;1.80;;;14.40;94.20;;;;;;4976680;29;20027;-94
2022/10/10 11:12:39;;;;;;;9.23;1.67;;;14.40;94.30;;;;;;4938474;29;20040;-94
2022/10/10 11:15:28;;;;;;;8.18;1.60;;;14.80;94.20;;;;;;4951489;29;20023;-96
2022/10/10 11:18:11;;;;;;;7.45;1.38;;;15.30;93.90;;;;;;4947485;29;20044;-94
2022/10/10 11:20:46;;;;;;;13.20;1.75;;;15.70;92.40;;;;;;4942215;29;20035;-95
2022/10/10 11:23:18;;;;;;;15.27;2.13;;;16.10;91.90;;;;;;4956349;29;20011;-95
2022/10/10 11:26:06;;;;;;;6.72;1.55;;;16.40;90.40;;;;;;4956066;29;20050;-96
2022/10/10 11:28:57;;;;;;;8.98;1.45;;;16.70;90.10;;;;;;4955792;29;20051;-94
2022/10/10 11:31:30;;;;;;;7.82;1.60;;;17.00;86.90;;;;;;4947665;29;20036;-95
2022/10/10 11:34:02;;;;;;;7.97;1.45;;;17.20;85.80;;;;;;4955155;29;20020;-92
2022/10/10 11:36:33;;;;;;;5.55;1.40;;;17.40;84.60;;;;;;4946739;29;20035;-93
2022/10/10 11:39:19;;;;;;;5.53;1.40;;;17.70;84.20;;;;;;4947495;29;20058;-94
2022/10/10 11:41:56;;;;;;;8.40;1.50;;;18.00;82.80;;;;;;4963067;28;20110;-90
2022/10/10 11:44:32;;;;;;;15.70;2.03;;;18.20;81.60;;;;;;4960868;28;20047;-89
2022/10/10 11:47:10;;;;;;;11.85;1.98;;;18.50;80.60;;;;;;4959790;28;20019;-95
2022/10/10 11:50:12;;;;;;;10.05;1.85;;;18.60;79.00;;;;;;4960623;28;20370;-90
2022/10/10 11:53:06;;;;;;;14.43;1.73;;;18.50;77.90;;;;;;4969963;28;20020;-94
2022/10/10 11:55:38;;;;;;;7.70;1.48;;;18.00;77.10;;;;;;4962688;29;20090;-95
2022/10/10 11:58:06;;;;;;;10.13;1.52;;;17.40;78.10;;;;;;4962203;28;20031;-92
2022/10/10 12:00:41;;;;;;;11.10;1.52;;;17.00;79.30;;;;;;4964608;29;20082;-94
2022/10/10 12:03:08;;;;;;;12.68;1.85;;;16.60;80.30;;;;;;4959727;29;20024;-93
2022/10/10 12:05:37;;;;;;;10.85;1.70;;;16.40;81.50;;;;;;4957775;29;20048;-95
2022/10/10 12:08:11;;;;;;;7.38;1.98;;;16.30;81.90;;;;;;4972620;28;20031;-93
2022/10/10 12:10:44;;;;;;;9.32;1.88;;;16.30;82.60;;;;;;4959840;29;20020;-91
2022/10/10 12:13:33;;;;;;;8.32;1.48;;;16.40;82.60;;;;;;4969313;28;20042;-95
2022/10/10 12:16:06;;;;;;;7.63;1.60;;;16.20;80.60;;;;;;4963071;29;20043;-94
2022/10/10 12:18:46;;;;;;;11.70;1.50;;;16.10;81.20;;;;;;4967200;28;20052;-93
2022/10/10 12:21:18;;;;;;;9.13;1.50;;;16.10;81.30;;;;;;4960579;29;20021;-93
2022/10/10 12:24:11;;;;;;;6.20;1.30;;;16.40;81.00;;;;;;4967578;29;20019;-96
2022/10/10 12:26:55;;;;;;;7.03;1.30;;;16.80;80.40;;;;;;4961131;28;20019;-89
2022/10/10 12:29:46;;;;;;;13.07;1.60;;;17.20;79.10;;;;;;4963742;28;20039;-93
2022/10/10 12:32:16;;;;;;;5.95;1.52;;;17.10;77.90;;;;;;4983641;28;20095;-96
2022/10/10 12:34:47;;;;;;;6.47;1.40;;;16.90;78.30;;;;;;4959261;29;20027;-93
2022/10/10 12:37:27;;;;;;;9.63;1.65;;;16.60;78.90;;;;;;4959420;29;20024;-92
2022/10/10 12:40:01;;;;;;;8.35;1.52;;;16.40;79.80;;;;;;4952511;29;20030;-96
2022/10/10 12:42:36;;;;;;;6.50;1.23;;;16.10;80.40;;;;;;4962654;29;20028;-93
2022/10/10 12:45:23;;;;;;;11.00;1.38;;;16.00;80.90;;;;;;4965035;28;20073;-95
2022/10/10 12:47:49;;;;;;;7.68;1.40;;;15.80;81.10;;;;;;4967554;29;20040;-90
2022/10/10 12:50:23;;;;;;;9.38;1.60;;;15.70;80.60;;;;;;4964562;29;20060;-94
2022/10/10 12:53:05;;;;;;;14.63;2.15;;;15.60;80.30;;;;;;4971891;28;20090;-94
2022/10/10 12:55:47;;;;;;;7.45;1.60;;;15.70;80.40;;;;;;4974281;28;20035;-95
2022/10/10 12:58:39;;;;;;;9.23;1.70;;;15.80;80.20;;;;;;4971434;28;20072;-95
2022/10/10 13:01:20;;;;;;;4.82;1.20;;;16.10;80.00;;;;;;4964128;29;20051;-94
2022/10/10 13:03:46;;;;;;;;;;;16.60;79.20;;;;;;4959715;29;20033;-95
2022/10/10 13:06:39;;;;;;;6.40;1.70;;;16.90;77.70;;;;;;4958357;29;19945;-92
2022/10/10 13:09:20;;;;;;;10.13;1.83;;;17.40;77.20;;;;;;4957029;29;20031;-95